메인 페이지
METAR-TAF:

METAR-TAF

공항 :

워털루, 아이오와, 미국

위도: 42-33-16N, 경도: 092-24-04W, 고도: 266m

현재 날씨관측

예보는 57분 전, 22:04시(UTC)에 발표되었습니다.
9kt
온도 0°C
습도 80%
기압 1024 hPa
시정: 16.1km
고도 1300ft 상공 구름 조금
고도 9500ft 상공 흐림

METAR: KALO 252204Z 01009KT 10SM FEW013 OVC095 00/M03 A3025 RMK AO2 T00001033

시각: 18:01 (23:01 UTC)

예보

예보는 40분 전, 22:21시(UTC)에 발표되었습니다.
예보 대상 시간: 25일 22시부터 26일 18시까지 (UTC)
북북동10kt
시정: 10km
고도 1500ft 상공 구름 보통
고도 4000ft 상공 구름 많음
고도 10000ft 상공 흐림
26일 0300시부터 (UTC)
9kt
시정: 4.8km
고도 1000ft 상공 흐림
약한눈
26일 0800시부터 (UTC)
10kt
시정: 10km
고도 1500ft 상공 구름 많음
26일 1200시부터 (UTC)
북북서8kt
시정: 10km
고도 2500ft 상공 구름 많음

TAF: KALO 252221Z 2522/2618 02010KT P6SM SCT015 BKN040 OVC100 FM260300 01009KT 3SM -SN OVC010 FM260800 35010KT P6SM BKN015 FM261200 34008KT P6SM BKN025

4,000개 이상의 공항 관측 자료 및 예보 (METAR 및 TAF 보고).

지도상에서 검색 가능한 기상관측소가 노란 점과 빨간 점으로 표시되어 있습니다.

기상관측소 명을 보려면 표시 위로 마우스를 이동하세요.

날씨 관측과 예보를 보려면 클릭하세요.

지도 변경 : 확대하려면 엑스 표시가 있는 녹색 버튼, 축소하려면 빼기 표시가 있는 녹색 버튼, 다음 페이지의 지도를 보려면 녹색 화살표를 클릭하세요.


METAR-TAF: